createdAt,value
2022-10-08T00:01:11.873Z,10.13
2022-10-08T00:03:59.455Z,10.40
2022-10-08T00:06:46.957Z,7.43
2022-10-08T00:09:34.586Z,8.47
2022-10-08T00:12:22.000Z,8.77
2022-10-08T00:15:10.380Z,8.13
2022-10-08T00:17:57.842Z,7.90
2022-10-08T00:20:45.756Z,8.47
2022-10-08T00:23:35.071Z,8.20
2022-10-08T00:26:25.927Z,9.90
2022-10-08T00:29:17.400Z,8.17
2022-10-08T00:32:04.893Z,8.03
2022-10-08T00:34:52.332Z,6.80
2022-10-08T00:37:39.746Z,7.70
2022-10-08T00:40:27.180Z,7.77
2022-10-08T00:43:17.085Z,7.60
2022-10-08T00:46:06.984Z,8.23
2022-10-08T00:49:12.596Z,7.23
2022-10-08T00:52:00.087Z,7.43
2022-10-08T00:54:50.292Z,6.80
2022-10-08T00:57:39.529Z,8.17
2022-10-08T01:00:27.195Z,7.97
2022-10-08T01:03:14.797Z,7.37
2022-10-08T01:06:29.765Z,7.50
2022-10-08T01:10:24.475Z,8.47
2022-10-08T01:13:40.305Z,8.30
2022-10-08T01:16:54.280Z,7.00
2022-10-08T01:20:05.590Z,8.13
2022-10-08T01:23:31.800Z,7.43
2022-10-08T01:26:57.494Z,7.27
2022-10-08T01:29:50.565Z,8.07
2022-10-08T01:33:12.442Z,7.87
2022-10-08T01:36:02.645Z,7.63
2022-10-08T01:39:01.275Z,7.93
2022-10-08T01:41:56.577Z,8.63
2022-10-08T01:44:59.059Z,7.73
2022-10-08T01:47:49.691Z,8.77
2022-10-08T01:50:55.293Z,7.40
2022-10-08T01:53:47.785Z,8.53
2022-10-08T01:56:40.281Z,7.87
2022-10-08T01:59:41.212Z,8.33
2022-10-08T02:02:29.081Z,9.00
2022-10-08T02:05:16.765Z,8.70
2022-10-08T02:08:04.901Z,6.53
2022-10-08T02:10:53.174Z,8.10
2022-10-08T02:13:41.346Z,7.43
2022-10-08T02:16:30.421Z,9.47
2022-10-08T02:19:35.126Z,7.60
2022-10-08T02:22:35.021Z,8.30
2022-10-08T02:25:50.660Z,8.33
2022-10-08T02:29:04.435Z,7.40
2022-10-08T02:32:06.628Z,7.93
2022-10-08T02:35:07.382Z,9.10
2022-10-08T02:38:13.875Z,7.17
2022-10-08T02:41:05.167Z,9.03
2022-10-08T02:43:57.981Z,8.03
2022-10-08T02:46:50.591Z,9.07
2022-10-08T02:49:47.196Z,8.23
2022-10-08T02:52:41.990Z,7.77
2022-10-08T02:56:14.925Z,6.90
2022-10-08T02:59:03.838Z,8.67
2022-10-08T03:02:00.710Z,8.23
2022-10-08T03:05:02.626Z,8.83
2022-10-08T03:07:54.240Z,9.57
2022-10-08T03:10:44.146Z,8.40
2022-10-08T03:13:37.355Z,8.93
2022-10-08T03:16:36.615Z,9.77
2022-10-08T03:19:24.290Z,8.43
2022-10-08T03:22:12.085Z,9.47
2022-10-08T03:24:59.570Z,9.63
2022-10-08T03:27:46.961Z,8.47
2022-10-08T03:30:34.876Z,6.63
2022-10-08T03:33:23.101Z,9.63
2022-10-08T03:36:10.545Z,8.80
2022-10-08T03:38:58.211Z,9.23
2022-10-08T03:41:45.633Z,8.03
2022-10-08T03:44:33.270Z,8.23
2022-10-08T03:47:20.717Z,10.43
2022-10-08T03:50:08.996Z,9.20
2022-10-08T03:52:56.433Z,9.57
2022-10-08T03:55:43.861Z,8.27
2022-10-08T03:58:31.917Z,9.53
2022-10-08T04:01:19.450Z,7.37
2022-10-08T04:04:06.922Z,8.27
2022-10-08T04:06:54.370Z,9.50
2022-10-08T04:09:41.806Z,9.83
2022-10-08T04:12:29.886Z,9.80
2022-10-08T04:15:18.393Z,6.73
2022-10-08T04:18:07.260Z,8.07
2022-10-08T04:21:05.536Z,8.23
2022-10-08T04:23:52.965Z,8.10
2022-10-08T04:26:40.475Z,9.37
2022-10-08T04:29:27.896Z,8.43
2022-10-08T04:32:15.966Z,8.37
2022-10-08T04:35:03.581Z,8.50
2022-10-08T04:37:51.121Z,8.87
2022-10-08T04:40:38.541Z,8.83
2022-10-08T04:43:25.994Z,8.60
2022-10-08T04:46:17.396Z,8.77
2022-10-08T04:49:04.925Z,8.73
2022-10-08T04:51:54.998Z,9.03
2022-10-08T04:54:42.521Z,8.90
2022-10-08T04:57:30.055Z,8.70
2022-10-08T05:00:19.116Z,9.70
2022-10-08T05:03:07.000Z,8.27
2022-10-08T05:05:54.526Z,8.87
2022-10-08T05:08:43.065Z,9.07
2022-10-08T05:11:32.414Z,7.90
2022-10-08T05:14:19.821Z,9.07
2022-10-08T05:17:07.521Z,8.43
2022-10-08T05:19:54.906Z,8.53
2022-10-08T05:22:42.331Z,9.73
2022-10-08T05:25:34.679Z,7.13
2022-10-08T05:28:22.254Z,8.60
2022-10-08T05:31:10.123Z,7.90
2022-10-08T05:33:59.999Z,7.90
2022-10-08T05:36:47.515Z,8.10
2022-10-08T05:39:34.968Z,8.67
2022-10-08T05:42:22.391Z,7.03
2022-10-08T05:45:10.826Z,9.57
2022-10-08T05:47:58.235Z,8.77
2022-10-08T05:50:45.761Z,6.40
2022-10-08T05:53:39.415Z,6.83
2022-10-08T05:56:28.610Z,8.57
2022-10-08T05:59:21.570Z,8.37
2022-10-08T06:02:11.336Z,6.83
2022-10-08T06:04:58.800Z,8.43
2022-10-08T06:07:46.326Z,7.93
2022-10-08T06:10:34.759Z,7.80
2022-10-08T06:13:23.821Z,7.33
2022-10-08T06:16:13.000Z,7.90
2022-10-08T06:19:02.155Z,9.50
2022-10-08T06:21:50.465Z,8.57
2022-10-08T06:24:37.885Z,6.90
2022-10-08T06:27:25.280Z,8.10
2022-10-08T06:30:13.185Z,8.57
2022-10-08T06:33:00.595Z,7.37
2022-10-08T06:35:48.011Z,7.80
2022-10-08T06:38:35.484Z,8.70
2022-10-08T06:41:24.486Z,9.00
2022-10-08T06:44:14.884Z,7.47
2022-10-08T06:47:02.319Z,7.77
2022-10-08T06:49:49.898Z,9.20
2022-10-08T06:52:37.368Z,9.17
2022-10-08T06:55:24.913Z,6.13
2022-10-08T06:58:12.417Z,5.93
2022-10-08T07:01:32.551Z,6.47
2022-10-08T07:04:21.212Z,7.80
2022-10-08T07:07:08.650Z,8.03
2022-10-08T07:09:56.145Z,6.70
2022-10-08T07:12:43.515Z,6.87
2022-10-08T07:15:32.799Z,7.13
2022-10-08T07:18:20.193Z,7.63
2022-10-08T07:21:11.450Z,6.83
2022-10-08T07:24:01.735Z,6.70
2022-10-08T07:26:49.230Z,7.93
2022-10-08T07:29:36.735Z,8.57
2022-10-08T07:32:24.328Z,7.80
2022-10-08T07:35:11.766Z,7.47
2022-10-08T07:37:59.186Z,7.80
2022-10-08T07:40:48.660Z,6.97
2022-10-08T07:43:37.240Z,8.23
2022-10-08T07:46:35.771Z,6.93
2022-10-08T07:49:23.271Z,8.47
2022-10-08T07:52:11.115Z,6.50
2022-10-08T07:54:58.595Z,8.30
2022-10-08T07:57:46.396Z,8.17
2022-10-08T08:00:34.291Z,8.37
2022-10-08T08:03:21.744Z,7.07
2022-10-08T08:06:17.205Z,8.03
2022-10-08T08:09:04.662Z,8.60
2022-10-08T08:11:52.156Z,7.77
2022-10-08T08:14:39.600Z,6.93
2022-10-08T08:17:27.471Z,6.57
2022-10-08T08:20:14.910Z,8.87
2022-10-08T08:23:02.355Z,8.00
2022-10-08T08:25:49.760Z,7.63
2022-10-08T08:28:37.855Z,6.73
2022-10-08T08:31:32.244Z,7.67
2022-10-08T08:34:24.927Z,7.77
2022-10-08T08:37:12.335Z,6.27
2022-10-08T08:39:59.835Z,6.50
2022-10-08T08:42:57.800Z,8.07
2022-10-08T08:45:49.150Z,8.27
2022-10-08T08:48:39.524Z,7.57
2022-10-08T08:51:27.075Z,7.90
2022-10-08T08:54:14.857Z,8.10
2022-10-08T08:57:33.076Z,7.63
2022-10-08T09:00:26.667Z,6.93
2022-10-08T09:03:34.999Z,6.03
2022-10-08T09:06:26.300Z,7.80
2022-10-08T09:09:30.249Z,7.93
2022-10-08T09:12:36.614Z,6.67
2022-10-08T09:15:37.947Z,6.90
2022-10-08T09:18:25.542Z,8.77
2022-10-08T09:21:13.335Z,7.77
2022-10-08T09:24:01.590Z,7.30
2022-10-08T09:26:49.305Z,6.57
2022-10-08T09:29:37.595Z,8.07
2022-10-08T09:32:25.086Z,7.60
2022-10-08T09:35:15.986Z,5.80
2022-10-08T09:38:06.059Z,7.73
2022-10-08T09:41:18.565Z,6.10
2022-10-08T09:44:21.280Z,7.63
2022-10-08T09:47:14.097Z,8.10
2022-10-08T09:50:30.875Z,6.37
2022-10-08T09:53:19.411Z,7.13
2022-10-08T09:56:09.716Z,7.00
2022-10-08T09:59:01.986Z,7.70
2022-10-08T10:01:49.812Z,6.47
2022-10-08T10:04:40.421Z,7.28
2022-10-08T10:07:45.976Z,7.27
2022-10-08T10:10:45.174Z,8.63
2022-10-08T10:13:40.810Z,7.97
2022-10-08T10:16:41.302Z,7.60
2022-10-08T10:19:57.389Z,7.93
2022-10-08T10:23:15.030Z,7.53
2022-10-08T10:26:24.317Z,8.35
2022-10-08T10:29:21.115Z,8.77
2022-10-08T10:32:37.941Z,8.20
2022-10-08T10:35:29.355Z,8.57
2022-10-08T10:38:27.920Z,9.80
2022-10-08T10:41:34.090Z,8.55
2022-10-08T10:44:31.566Z,8.47
2022-10-08T10:47:41.210Z,7.97
2022-10-08T10:50:44.181Z,7.43
2022-10-08T10:54:19.217Z,8.33
2022-10-08T10:57:21.556Z,7.97
2022-10-08T11:00:27.775Z,8.57
2022-10-08T11:03:24.220Z,7.88
2022-10-08T11:07:06.367Z,7.57
2022-10-08T11:10:41.695Z,8.30
2022-10-08T11:14:18.996Z,8.60
2022-10-08T11:17:36.886Z,8.32
2022-10-08T11:20:59.521Z,9.52
2022-10-08T11:24:07.305Z,8.65
2022-10-08T11:27:06.918Z,9.30
2022-10-08T11:30:40.311Z,7.97
2022-10-08T11:33:29.157Z,9.18
2022-10-08T11:37:11.123Z,8.93
2022-10-08T11:40:30.441Z,10.23
2022-10-08T11:43:46.430Z,8.57
2022-10-08T11:46:37.704Z,8.90
2022-10-08T11:49:27.092Z,9.73
2022-10-08T11:52:16.231Z,8.65
2022-10-08T11:55:04.733Z,9.43
2022-10-08T11:58:08.067Z,9.02
2022-10-08T12:01:09.686Z,8.63
2022-10-08T12:04:36.696Z,7.93
2022-10-08T12:07:32.401Z,8.10
2022-10-08T12:10:19.735Z,8.40
2022-10-08T12:13:17.402Z,7.97
2022-10-08T12:16:06.819Z,8.30
2022-10-08T12:18:54.590Z,7.45
2022-10-08T12:21:50.513Z,9.55
2022-10-08T12:24:37.935Z,8.35
2022-10-08T12:27:30.030Z,7.72
2022-10-08T12:30:17.886Z,7.47
2022-10-08T12:33:09.673Z,6.95
2022-10-08T12:36:44.285Z,8.50
2022-10-08T12:39:41.580Z,8.27
2022-10-08T12:42:37.066Z,7.30
2022-10-08T12:45:38.806Z,7.57
2022-10-08T12:49:01.780Z,8.07
2022-10-08T12:52:17.791Z,6.40
2022-10-08T12:55:06.965Z,7.45
2022-10-08T12:57:55.280Z,6.70
2022-10-08T13:00:45.741Z,7.47
2022-10-08T13:03:33.666Z,6.03
2022-10-08T13:06:33.034Z,6.63
2022-10-08T13:09:31.040Z,5.68
2022-10-08T13:12:18.475Z,7.43
2022-10-08T13:15:09.206Z,6.30
2022-10-08T13:17:57.050Z,6.90
2022-10-08T13:21:04.836Z,6.57
2022-10-08T13:23:53.376Z,6.68
2022-10-08T13:26:50.871Z,6.43
2022-10-08T13:29:38.431Z,5.93
2022-10-08T13:32:35.710Z,5.78
2022-10-08T13:35:25.134Z,6.93
2022-10-08T13:38:23.502Z,6.40
2022-10-08T13:41:24.070Z,6.40
2022-10-08T13:44:11.776Z,6.28
2022-10-08T13:47:03.558Z,6.70
2022-10-08T13:49:51.395Z,6.70
2022-10-08T13:52:46.351Z,7.18
2022-10-08T13:55:36.770Z,7.70
2022-10-08T13:58:24.200Z,7.10
2022-10-08T14:01:11.680Z,6.70
2022-10-08T14:03:59.182Z,7.50
2022-10-08T14:06:54.061Z,7.45
2022-10-08T14:09:41.691Z,7.28
2022-10-08T14:12:33.760Z,7.55
2022-10-08T14:15:21.280Z,6.30
2022-10-08T14:18:09.111Z,6.25
2022-10-08T14:20:56.600Z,6.95
2022-10-08T14:23:44.652Z,6.30
2022-10-08T14:26:32.385Z,6.03
2022-10-08T14:29:19.795Z,6.47
2022-10-08T14:32:08.621Z,7.35
2022-10-08T14:34:56.028Z,7.00
2022-10-08T14:37:43.928Z,5.95
2022-10-08T14:40:31.870Z,6.88
2022-10-08T14:43:20.235Z,6.45
2022-10-08T14:46:07.931Z,6.15
2022-10-08T14:48:55.582Z,6.20
2022-10-08T14:51:43.318Z,6.00
2022-10-08T14:54:30.815Z,5.82
2022-10-08T14:57:18.223Z,6.53
2022-10-08T15:00:06.757Z,5.78
2022-10-08T15:02:54.238Z,6.00
2022-10-08T15:05:41.650Z,6.15
2022-10-08T15:08:29.685Z,5.60
2022-10-08T15:11:17.141Z,6.60
2022-10-08T15:14:04.950Z,4.53
2022-10-08T15:16:52.503Z,5.22
2022-10-08T15:19:40.075Z,5.35
2022-10-08T15:22:27.492Z,5.30
2022-10-08T15:25:15.020Z,5.32
2022-10-08T15:28:02.774Z,5.28
2022-10-08T15:30:50.246Z,4.75
2022-10-08T15:33:40.080Z,5.35
2022-10-08T15:36:30.476Z,5.57
2022-10-08T15:39:19.885Z,5.07
2022-10-08T15:42:07.826Z,4.72
2022-10-08T15:44:55.369Z,5.65
2022-10-08T15:47:42.723Z,5.03
2022-10-08T15:50:30.171Z,5.03
2022-10-08T15:53:17.562Z,5.70
2022-10-08T15:56:06.349Z,5.97
2022-10-08T15:58:53.930Z,6.90
2022-10-08T16:01:41.385Z,5.35
2022-10-08T16:04:29.207Z,6.18
2022-10-08T16:07:17.462Z,6.03
2022-10-08T16:10:05.828Z,5.90
2022-10-08T16:12:53.370Z,6.07
2022-10-08T16:15:41.127Z,6.03
2022-10-08T16:18:28.572Z,5.63
2022-10-08T16:21:16.005Z,5.07
2022-10-08T16:24:04.755Z,4.95
2022-10-08T16:26:52.335Z,5.60
2022-10-08T16:29:39.785Z,6.30
2022-10-08T16:32:27.261Z,5.95
2022-10-08T16:35:14.770Z,5.43
2022-10-08T16:38:02.257Z,6.05
2022-10-08T16:40:49.740Z,5.43
2022-10-08T16:43:37.175Z,5.15
2022-10-08T16:46:29.437Z,6.10
2022-10-08T16:49:25.983Z,6.03
2022-10-08T16:52:14.051Z,6.38
2022-10-08T16:55:01.481Z,6.00
2022-10-08T16:57:51.622Z,6.10
2022-10-08T17:00:39.275Z,5.65
2022-10-08T17:03:26.705Z,6.05
2022-10-08T17:06:15.269Z,6.07
2022-10-08T17:09:04.421Z,5.78
2022-10-08T17:11:52.762Z,5.32
2022-10-08T17:14:40.207Z,5.45
2022-10-08T17:17:27.711Z,5.45
2022-10-08T17:20:15.200Z,5.80
2022-10-08T17:23:02.619Z,4.22
2022-10-08T17:25:58.473Z,6.07
2022-10-08T17:28:48.669Z,4.83
2022-10-08T17:31:37.344Z,4.82
2022-10-08T17:34:25.117Z,4.72
2022-10-08T17:37:12.591Z,5.32
2022-10-08T17:40:00.035Z,5.65
2022-10-08T17:42:47.716Z,4.18
2022-10-08T17:45:35.426Z,4.78
2022-10-08T17:48:22.880Z,4.28
2022-10-08T17:51:14.363Z,5.30
2022-10-08T17:54:12.826Z,5.07
2022-10-08T17:57:00.568Z,5.40
2022-10-08T17:59:47.990Z,5.35
2022-10-08T18:02:35.474Z,5.50
2022-10-08T18:05:22.975Z,4.15
2022-10-08T18:08:10.387Z,4.38
2022-10-08T18:11:01.330Z,3.97
2022-10-08T18:13:48.835Z,4.22
2022-10-08T18:16:36.610Z,3.55
2022-10-08T18:19:24.605Z,5.10
2022-10-08T18:22:12.215Z,3.77
2022-10-08T18:25:02.019Z,5.30
2022-10-08T18:27:49.540Z,5.07
2022-10-08T18:30:37.041Z,4.13
2022-10-08T18:33:24.857Z,5.13
2022-10-08T18:36:17.117Z,3.97
2022-10-08T18:39:08.750Z,4.75
2022-10-08T18:41:56.645Z,4.35
2022-10-08T18:44:44.071Z,4.68
2022-10-08T18:47:31.573Z,5.45
2022-10-08T18:50:18.991Z,4.50
2022-10-08T18:53:06.450Z,4.68
2022-10-08T18:55:53.898Z,5.25
2022-10-08T18:58:41.721Z,4.63
2022-10-08T19:01:37.112Z,5.47
2022-10-08T19:04:24.800Z,5.60
2022-10-08T19:07:12.250Z,5.40
2022-10-08T19:09:59.640Z,5.87
2022-10-08T19:12:47.238Z,5.20
2022-10-08T19:15:40.265Z,4.45
2022-10-08T19:18:27.771Z,5.27
2022-10-08T19:21:15.176Z,5.53
2022-10-08T19:24:03.735Z,5.45
2022-10-08T19:26:51.810Z,4.80
2022-10-08T19:29:39.519Z,4.63
2022-10-08T19:32:26.948Z,5.70
2022-10-08T19:35:14.460Z,5.97
2022-10-08T19:38:02.101Z,4.90
2022-10-08T19:40:49.559Z,5.03
2022-10-08T19:43:37.451Z,5.63
2022-10-08T19:46:27.420Z,4.43
2022-10-08T19:49:15.591Z,5.23
2022-10-08T19:52:03.122Z,5.23
2022-10-08T19:54:50.959Z,6.07
2022-10-08T19:57:38.475Z,5.63
2022-10-08T20:00:25.902Z,6.40
2022-10-08T20:03:13.375Z,5.20
2022-10-08T20:06:13.783Z,5.47
2022-10-08T20:09:04.035Z,5.33
2022-10-08T20:11:55.160Z,5.40
2022-10-08T20:14:42.652Z,5.47
2022-10-08T20:17:30.165Z,5.27
2022-10-08T20:20:32.225Z,5.33
2022-10-08T20:23:20.911Z,5.60
2022-10-08T20:26:22.650Z,7.03
2022-10-08T20:29:14.885Z,6.33
2022-10-08T20:32:02.380Z,5.83
2022-10-08T20:34:49.781Z,5.77
2022-10-08T20:37:37.315Z,5.60
2022-10-08T20:40:24.741Z,5.30
2022-10-08T20:43:12.286Z,6.20
2022-10-08T20:46:13.341Z,5.03
2022-10-08T20:49:02.070Z,5.83
2022-10-08T20:51:49.542Z,5.60
2022-10-08T20:54:37.030Z,4.87
2022-10-08T20:57:24.526Z,7.10
2022-10-08T21:00:13.171Z,5.53
2022-10-08T21:03:00.610Z,6.07
2022-10-08T21:05:48.042Z,6.70
2022-10-08T21:08:41.256Z,5.17
2022-10-08T21:11:30.524Z,6.10
2022-10-08T21:14:22.563Z,6.03
2022-10-08T21:17:10.100Z,6.07
2022-10-08T21:19:57.541Z,6.03
2022-10-08T21:22:45.109Z,5.97
2022-10-08T21:25:32.658Z,5.87
2022-10-08T21:28:20.169Z,5.80
2022-10-08T21:31:09.719Z,6.40
2022-10-08T21:33:59.035Z,5.90
2022-10-08T21:36:46.755Z,5.67
2022-10-08T21:39:34.285Z,5.47
2022-10-08T21:42:21.711Z,5.60
2022-10-08T21:45:10.023Z,5.50
2022-10-08T21:47:57.431Z,5.37
2022-10-08T21:50:44.876Z,6.00
2022-10-08T21:53:34.914Z,6.43
2022-10-08T21:56:26.880Z,6.37
2022-10-08T21:59:16.335Z,6.90
2022-10-08T22:02:03.967Z,7.80
2022-10-08T22:04:51.538Z,6.87
2022-10-08T22:07:38.995Z,6.83
2022-10-08T22:10:26.395Z,5.77
2022-10-08T22:13:14.205Z,6.40
2022-10-08T22:16:05.122Z,5.53
2022-10-08T22:18:52.755Z,6.50
2022-10-08T22:21:40.678Z,6.40
2022-10-08T22:24:28.151Z,6.23
2022-10-08T22:27:15.576Z,6.27
2022-10-08T22:30:03.156Z,5.73
2022-10-08T22:32:50.996Z,6.87
2022-10-08T22:35:38.640Z,5.97
2022-10-08T22:38:26.051Z,6.90
2022-10-08T22:41:34.963Z,6.50
2022-10-08T22:44:22.401Z,7.03
2022-10-08T22:47:09.907Z,6.83
2022-10-08T22:49:57.346Z,6.47
2022-10-08T22:52:50.582Z,6.33
2022-10-08T22:55:41.975Z,7.07
2022-10-08T22:58:29.438Z,6.93
2022-10-08T23:01:21.252Z,6.63
2022-10-08T23:04:08.831Z,6.77
2022-10-08T23:06:56.352Z,7.13
2022-10-08T23:09:43.820Z,6.27
2022-10-08T23:12:31.365Z,7.20
2022-10-08T23:15:18.917Z,7.57
2022-10-08T23:18:06.381Z,7.30
2022-10-08T23:20:53.827Z,7.30
2022-10-08T23:23:42.211Z,6.77
2022-10-08T23:26:30.061Z,7.87
2022-10-08T23:29:17.486Z,6.83
2022-10-08T23:32:05.049Z,6.37
2022-10-08T23:34:52.627Z,6.40
2022-10-08T23:37:40.076Z,5.47
2022-10-08T23:40:27.502Z,6.33
2022-10-08T23:43:15.162Z,6.83
2022-10-08T23:46:07.681Z,6.47
2022-10-08T23:48:56.628Z,5.73
2022-10-08T23:51:44.020Z,7.03
2022-10-08T23:54:31.441Z,7.03
2022-10-08T23:57:20.608Z,6.73
